createdAt,value
2023-10-23T00:01:45.707Z,98515.34
2023-10-23T00:04:13.140Z,98510.78
2023-10-23T00:06:40.655Z,98516.44
2023-10-23T00:09:07.995Z,98519.31
2023-10-23T00:11:35.352Z,98511.25
2023-10-23T00:14:02.656Z,98515.00
2023-10-23T00:16:30.078Z,98515.19
2023-10-23T00:18:58.810Z,98519.75
2023-10-23T00:21:26.241Z,98515.66
2023-10-23T00:23:53.581Z,98506.59
2023-10-23T00:26:20.996Z,98505.16
2023-10-23T00:28:49.238Z,98503.28
2023-10-23T00:31:16.836Z,98511.53
2023-10-23T00:33:44.326Z,98506.13
2023-10-23T00:36:13.059Z,98475.84
2023-10-23T00:38:40.365Z,98478.72
2023-10-23T00:41:07.672Z,98464.47
2023-10-23T00:43:34.989Z,98452.69
2023-10-23T00:46:06.511Z,98451.28
2023-10-23T00:48:34.047Z,98453.53
2023-10-23T00:51:02.863Z,98465.72
2023-10-23T00:53:36.677Z,98471.69
2023-10-23T00:56:05.302Z,98467.78
2023-10-23T00:58:33.291Z,98477.69
2023-10-23T01:01:02.886Z,98459.53
2023-10-23T01:03:30.707Z,98449.41
2023-10-23T01:05:58.064Z,98448.16
2023-10-23T01:08:26.208Z,98435.09
2023-10-23T01:10:54.950Z,98444.56
2023-10-23T01:13:22.513Z,98432.78
2023-10-23T01:15:49.846Z,98426.41
2023-10-23T01:18:17.173Z,98438.44
2023-10-23T01:20:44.636Z,98434.69
2023-10-23T01:23:12.305Z,98421.97
2023-10-23T01:25:41.091Z,98434.97
2023-10-23T01:28:08.540Z,98426.06
2023-10-23T01:30:35.889Z,98427.72
2023-10-23T01:33:03.380Z,98425.19
2023-10-23T01:35:30.821Z,98428.91
2023-10-23T01:37:58.128Z,98430.13
2023-10-23T01:40:25.413Z,98428.34
2023-10-23T01:42:54.132Z,98411.63
2023-10-23T01:45:21.569Z,98405.47
2023-10-23T01:47:48.925Z,98400.09
2023-10-23T01:50:16.427Z,98397.66
2023-10-23T01:52:43.756Z,98375.53
2023-10-23T01:55:11.034Z,98373.81
2023-10-23T01:57:38.436Z,98369.50
2023-10-23T02:00:08.623Z,98371.50
2023-10-23T02:02:36.027Z,98359.59
2023-10-23T02:05:03.877Z,98355.16
2023-10-23T02:07:31.170Z,98353.44
2023-10-23T02:09:58.560Z,98348.88
2023-10-23T02:12:25.928Z,98334.84
2023-10-23T02:14:53.289Z,98337.75
2023-10-23T02:17:22.067Z,98327.63
2023-10-23T02:19:49.442Z,98335.09
2023-10-23T02:22:16.781Z,98340.28
2023-10-23T02:24:44.128Z,98316.28
2023-10-23T02:27:11.457Z,98319.53
2023-10-23T02:29:38.756Z,98308.19
2023-10-23T02:32:06.607Z,98300.25
2023-10-23T02:34:35.640Z,98302.00
2023-10-23T02:37:03.358Z,98313.34
2023-10-23T02:39:30.778Z,98300.28
2023-10-23T02:41:58.134Z,98292.16
2023-10-23T02:44:26.449Z,98305.31
2023-10-23T02:46:53.773Z,98292.22
2023-10-23T02:49:21.099Z,98302.94
2023-10-23T02:51:49.871Z,98295.31
2023-10-23T02:54:17.234Z,98287.63
2023-10-23T02:56:44.585Z,98297.78
2023-10-23T02:59:12.161Z,98282.72
2023-10-23T03:01:39.500Z,98270.50
2023-10-23T03:04:07.038Z,98256.88
2023-10-23T03:06:34.430Z,98254.19
2023-10-23T03:09:03.365Z,98258.03
2023-10-23T03:11:30.684Z,98252.03
2023-10-23T03:13:57.984Z,98246.56
2023-10-23T03:16:25.343Z,98234.91
2023-10-23T03:18:52.769Z,98248.38
2023-10-23T03:21:20.204Z,98253.06
2023-10-23T03:23:47.566Z,98255.31
2023-10-23T03:26:16.309Z,98250.84
2023-10-23T03:28:43.593Z,98246.50
2023-10-23T03:31:10.990Z,98244.03
2023-10-23T03:33:38.303Z,98236.22
2023-10-23T03:36:06.200Z,98233.50
2023-10-23T03:38:33.502Z,98239.06
2023-10-23T03:41:01.071Z,98235.94
2023-10-23T03:43:29.816Z,98234.91
2023-10-23T03:45:57.202Z,98221.41
2023-10-23T03:48:24.552Z,98236.84
2023-10-23T03:50:52.038Z,98222.66
2023-10-23T03:53:19.359Z,98238.81
2023-10-23T03:55:46.665Z,98251.34
2023-10-23T03:58:13.976Z,98243.28
2023-10-23T04:00:42.695Z,98232.13
2023-10-23T04:03:10.068Z,98224.94
2023-10-23T04:05:40.356Z,98230.88
2023-10-23T04:08:07.718Z,98236.41
2023-10-23T04:10:35.053Z,98234.63
2023-10-23T04:13:02.469Z,98228.69
2023-10-23T04:15:29.801Z,98228.28
2023-10-23T04:17:58.533Z,98226.00
2023-10-23T04:20:25.902Z,98236.88
2023-10-23T04:22:53.196Z,98233.38
2023-10-23T04:25:20.487Z,98244.16
2023-10-23T04:27:47.815Z,98251.81
2023-10-23T04:30:15.172Z,98239.47
2023-10-23T04:32:42.480Z,98244.22
2023-10-23T04:35:11.192Z,98255.81
2023-10-23T04:37:38.474Z,98248.00
2023-10-23T04:40:07.487Z,98244.28
2023-10-23T04:42:34.819Z,98245.50
2023-10-23T04:45:02.146Z,98245.53
2023-10-23T04:47:29.483Z,98244.28
2023-10-23T04:49:56.889Z,98267.78
2023-10-23T04:52:25.626Z,98260.16
2023-10-23T04:54:53.774Z,98257.28
2023-10-23T04:57:21.160Z,98259.75
2023-10-23T04:59:48.461Z,98249.66
2023-10-23T05:02:15.744Z,98253.78
2023-10-23T05:04:43.128Z,98258.72
2023-10-23T05:07:10.455Z,98284.06
2023-10-23T05:09:39.371Z,98286.75
2023-10-23T05:12:07.521Z,98276.84
2023-10-23T05:14:34.845Z,98268.59
2023-10-23T05:17:02.206Z,98273.75
2023-10-23T05:19:29.488Z,98286.53
2023-10-23T05:21:56.788Z,98282.22
2023-10-23T05:24:24.116Z,98286.75
2023-10-23T05:26:52.894Z,98279.94
2023-10-23T05:29:20.180Z,98290.25
2023-10-23T05:31:48.158Z,98294.56
2023-10-23T05:34:15.549Z,98292.50
2023-10-23T05:36:42.864Z,98300.75
2023-10-23T05:39:10.164Z,98302.81
2023-10-23T05:41:37.458Z,98303.22
2023-10-23T05:44:06.369Z,98293.34
2023-10-23T05:46:33.731Z,98304.06
2023-10-23T05:49:01.081Z,98310.25
2023-10-23T05:51:28.431Z,98309.81
2023-10-23T05:53:57.505Z,98303.41
2023-10-23T05:56:24.885Z,98313.94
2023-10-23T05:58:52.320Z,98302.81
2023-10-23T06:01:21.073Z,98321.16
2023-10-23T06:03:48.438Z,98320.50
2023-10-23T06:06:15.768Z,98325.09
2023-10-23T06:08:43.106Z,98329.59
2023-10-23T06:11:12.199Z,98329.59
2023-10-23T06:13:39.938Z,98346.69
2023-10-23T06:16:07.894Z,98339.47
2023-10-23T06:18:38.060Z,98335.56
2023-10-23T06:21:06.332Z,98347.94
2023-10-23T06:23:34.061Z,98372.88
2023-10-23T06:26:01.784Z,98364.22
2023-10-23T06:28:29.099Z,98363.00
2023-10-23T06:30:56.525Z,98371.66
2023-10-23T06:33:23.866Z,98376.19
2023-10-23T06:35:59.072Z,98390.22
2023-10-23T06:38:26.573Z,98397.66
2023-10-23T06:40:53.913Z,98416.16
2023-10-23T06:43:22.243Z,98426.25
2023-10-23T06:46:01.602Z,98439.91
2023-10-23T06:48:30.476Z,98447.53
2023-10-23T06:50:59.928Z,98449.19
2023-10-23T06:53:27.363Z,98441.56
2023-10-23T06:55:55.728Z,98437.16
2023-10-23T06:58:23.317Z,98449.78
2023-10-23T07:00:50.672Z,98448.91
2023-10-23T07:03:18.257Z,98451.56
2023-10-23T07:05:45.815Z,98457.97
2023-10-23T07:08:14.533Z,98458.81
2023-10-23T07:10:41.899Z,98472.88
2023-10-23T07:13:21.446Z,98475.13
2023-10-23T07:15:50.622Z,98476.78
2023-10-23T07:18:18.185Z,98489.56
2023-10-23T07:20:53.182Z,98507.09
2023-10-23T07:23:21.911Z,98505.25
2023-10-23T07:25:49.258Z,98509.31
2023-10-23T07:28:16.545Z,98510.59
2023-10-23T07:30:43.846Z,98510.22
2023-10-23T07:33:11.155Z,98509.59
2023-10-23T07:35:52.625Z,98503.44
2023-10-23T07:38:21.860Z,98498.28
2023-10-23T07:40:49.222Z,98506.16
2023-10-23T07:43:16.635Z,98510.31
2023-10-23T07:45:44.011Z,98519.38
2023-10-23T07:48:11.402Z,98523.72
2023-10-23T07:50:38.718Z,98535.06
2023-10-23T07:53:06.006Z,98531.78
2023-10-23T07:55:34.705Z,98539.81
2023-10-23T07:58:02.114Z,98550.34
2023-10-23T08:00:29.434Z,98562.91
2023-10-23T08:02:56.821Z,98567.69
2023-10-23T08:05:24.425Z,98569.34
2023-10-23T08:07:51.821Z,98565.84
2023-10-23T08:10:19.207Z,98569.72
2023-10-23T08:12:47.907Z,98567.25
2023-10-23T08:15:15.325Z,98566.44
2023-10-23T08:17:43.177Z,98564.78
2023-10-23T08:20:11.297Z,98570.16
2023-10-23T08:22:38.804Z,98579.66
2023-10-23T08:25:07.088Z,98576.75
2023-10-23T08:27:34.418Z,98589.75
2023-10-23T08:30:03.327Z,98600.91
2023-10-23T08:32:41.418Z,98587.63
2023-10-23T08:35:17.851Z,98595.78
2023-10-23T08:37:45.303Z,98602.19
2023-10-23T08:40:13.294Z,98606.69
2023-10-23T08:42:41.406Z,98611.88
2023-10-23T08:45:10.606Z,98614.28
2023-10-23T08:47:37.920Z,98613.91
2023-10-23T08:50:07.359Z,98623.81
2023-10-23T08:52:39.630Z,98630.41
2023-10-23T08:55:12.249Z,98630.84
2023-10-23T08:57:42.689Z,98635.81
2023-10-23T09:00:12.921Z,98633.75
2023-10-23T09:02:52.137Z,98645.91
2023-10-23T09:05:21.887Z,98649.44
2023-10-23T09:07:50.242Z,98649.66
2023-10-23T09:10:17.699Z,98648.59
2023-10-23T09:12:45.062Z,98656.09
2023-10-23T09:15:17.871Z,98652.09
2023-10-23T09:17:45.790Z,98653.16
2023-10-23T09:20:26.562Z,98660.13
2023-10-23T09:22:56.100Z,98655.81
2023-10-23T09:25:24.853Z,98651.59
2023-10-23T09:27:53.430Z,98663.25
2023-10-23T09:30:22.168Z,98654.88
2023-10-23T09:32:52.562Z,98657.38
2023-10-23T09:35:20.610Z,98682.63
2023-10-23T09:37:48.119Z,98679.94
2023-10-23T09:40:16.013Z,98669.31
2023-10-23T09:42:43.499Z,98667.03
2023-10-23T09:45:11.475Z,98672.44
2023-10-23T09:47:40.698Z,98677.16
2023-10-23T09:50:08.903Z,98674.94
2023-10-23T09:52:37.550Z,98679.09
2023-10-23T09:55:06.466Z,98675.31
2023-10-23T09:57:36.143Z,98670.03
2023-10-23T10:00:05.612Z,98678.25
2023-10-23T10:02:36.721Z,98676.28
2023-10-23T10:05:08.577Z,98679.66
2023-10-23T10:07:46.142Z,98681.81
2023-10-23T10:10:13.898Z,98683.59
2023-10-23T10:12:43.225Z,98677.13
2023-10-23T10:15:10.973Z,98678.25
2023-10-23T10:17:40.854Z,98680.78
2023-10-23T10:20:12.746Z,98688.06
2023-10-23T10:22:42.587Z,98694.16
2023-10-23T10:25:12.134Z,98688.66
2023-10-23T10:27:39.514Z,98678.94
2023-10-23T10:30:27.724Z,98694.66
2023-10-23T10:34:18.474Z,98690.97
2023-10-23T10:35:50.637Z,98695.63
2023-10-23T10:38:22.570Z,98696.13
2023-10-23T10:40:57.147Z,98689.31
2023-10-23T10:43:25.540Z,98690.25
2023-10-23T10:45:52.928Z,98697.47
2023-10-23T10:48:20.290Z,98693.63
2023-10-23T10:50:47.700Z,98692.16
2023-10-23T10:53:16.480Z,98692.81
2023-10-23T10:55:45.520Z,98697.47
2023-10-23T10:58:13.825Z,98695.44
2023-10-23T11:00:41.292Z,98700.72
2023-10-23T11:03:09.090Z,98688.44
2023-10-23T11:05:37.379Z,98693.81
2023-10-23T11:08:05.878Z,98694.69
2023-10-23T11:10:34.784Z,98695.13
2023-10-23T11:13:02.644Z,98693.34
2023-10-23T11:15:30.101Z,98688.75
2023-10-23T11:17:57.611Z,98695.97
2023-10-23T11:20:25.934Z,98685.69
2023-10-23T11:22:53.217Z,98688.91
2023-10-23T11:25:20.553Z,98685.69
2023-10-23T11:27:52.662Z,98681.47
2023-10-23T11:30:24.662Z,98678.75
2023-10-23T11:32:52.106Z,98685.03
2023-10-23T11:35:19.537Z,98680.81
2023-10-23T11:37:46.898Z,98686.47
2023-10-23T11:40:21.376Z,98672.50
2023-10-23T11:42:50.912Z,98665.63
2023-10-23T11:45:20.029Z,98666.34
2023-10-23T11:47:50.075Z,98667.28
2023-10-23T11:50:21.086Z,98658.78
2023-10-23T11:52:50.416Z,98659.50
2023-10-23T11:55:19.551Z,98658.44
2023-10-23T11:57:47.767Z,98658.78
2023-10-23T12:00:16.740Z,98664.34
2023-10-23T12:02:46.762Z,98667.06
2023-10-23T12:05:16.141Z,98664.81
2023-10-23T12:07:45.966Z,98663.31
2023-10-23T12:10:14.489Z,98666.22
2023-10-23T12:12:43.177Z,98646.00
2023-10-23T12:15:14.333Z,98639.28
2023-10-23T12:17:42.666Z,98649.53
2023-10-23T12:20:12.784Z,98635.75
2023-10-23T12:22:41.722Z,98631.03
2023-10-23T12:25:10.544Z,98635.06
2023-10-23T12:27:45.324Z,98635.28
2023-10-23T12:30:14.045Z,98637.28
2023-10-23T12:33:14.833Z,98642.50
2023-10-23T12:35:32.619Z,98636.00
2023-10-23T12:38:00.037Z,98635.28
2023-10-23T12:40:30.946Z,98638.09
2023-10-23T12:43:00.649Z,98638.22
2023-10-23T12:45:28.010Z,98634.19
2023-10-23T12:47:55.416Z,98634.69
2023-10-23T12:50:22.786Z,98633.75
2023-10-23T12:52:51.526Z,98631.84
2023-10-23T12:55:18.881Z,98641.28
2023-10-23T12:57:46.196Z,98631.16
2023-10-23T13:00:14.267Z,98642.69
2023-10-23T13:02:41.649Z,98648.22
2023-10-23T13:05:09.324Z,98634.53
2023-10-23T13:07:36.775Z,98638.53
2023-10-23T13:10:06.614Z,98639.19
2023-10-23T13:12:34.020Z,98635.78
2023-10-23T13:15:01.401Z,98643.34
2023-10-23T13:17:28.841Z,98644.03
2023-10-23T13:19:56.217Z,98640.25
2023-10-23T13:22:23.665Z,98640.16
2023-10-23T13:24:51.037Z,98643.47
2023-10-23T13:27:19.716Z,98641.09
2023-10-23T13:29:47.030Z,98643.50
2023-10-23T13:32:15.690Z,98632.34
2023-10-23T13:34:43.318Z,98634.97
2023-10-23T13:37:12.616Z,98634.03
2023-10-23T13:39:39.990Z,98643.78
2023-10-23T13:42:07.401Z,98642.72
2023-10-23T13:44:36.067Z,98637.84
2023-10-23T13:47:03.999Z,98638.84
2023-10-23T13:49:31.467Z,98658.19
2023-10-23T13:51:58.865Z,98657.84
2023-10-23T13:54:26.226Z,98645.50
2023-10-23T13:56:53.531Z,98647.78
2023-10-23T13:59:20.858Z,98656.81
2023-10-23T14:01:49.604Z,98669.22
2023-10-23T14:04:17.013Z,98660.41
2023-10-23T14:06:44.521Z,98654.34
2023-10-23T14:09:43.971Z,98666.16
2023-10-23T14:12:01.833Z,98662.03
2023-10-23T14:14:29.959Z,98663.97
2023-10-23T14:16:59.579Z,98673.47
2023-10-23T14:19:38.758Z,98666.41
2023-10-23T14:22:10.698Z,98667.81
2023-10-23T14:24:38.269Z,98671.69
2023-10-23T14:27:05.764Z,98662.97
2023-10-23T14:29:33.052Z,98677.69
2023-10-23T14:32:01.855Z,98675.72
2023-10-23T14:34:29.489Z,98675.31
2023-10-23T14:36:57.078Z,98688.66
2023-10-23T14:39:25.672Z,98683.31
2023-10-23T14:41:53.115Z,98683.16
2023-10-23T14:44:20.430Z,98694.28
2023-10-23T14:46:49.605Z,98689.69
2023-10-23T14:49:18.491Z,98690.81
2023-10-23T14:51:45.829Z,98698.41
2023-10-23T14:54:13.135Z,98696.66
2023-10-23T14:56:40.444Z,98698.53
2023-10-23T14:59:07.781Z,98701.13
2023-10-23T15:01:35.221Z,98704.56
2023-10-23T15:04:02.701Z,98708.91
2023-10-23T15:06:31.491Z,98708.13
2023-10-23T15:08:58.820Z,98708.94
2023-10-23T15:11:26.173Z,98716.81
2023-10-23T15:13:53.615Z,98711.88
2023-10-23T15:16:21.025Z,98718.47
2023-10-23T15:18:48.464Z,98722.22
2023-10-23T15:21:15.759Z,98728.44
2023-10-23T15:23:44.435Z,98727.19
2023-10-23T15:26:11.925Z,98726.44
2023-10-23T15:28:39.386Z,98721.66
2023-10-23T15:31:07.154Z,98722.44
2023-10-23T15:33:35.323Z,98715.97
2023-10-23T15:36:03.545Z,98718.78
2023-10-23T15:38:31.314Z,98724.09
2023-10-23T15:41:07.427Z,98730.59
2023-10-23T15:43:35.378Z,98731.84
2023-10-23T15:46:03.281Z,98738.81
2023-10-23T15:48:31.190Z,98754.56
2023-10-23T15:50:59.765Z,98759.50
2023-10-23T15:53:28.079Z,98755.28
2023-10-23T15:55:56.510Z,98761.16
2023-10-23T15:58:25.391Z,98768.53
2023-10-23T16:00:53.298Z,98758.59
2023-10-23T16:03:21.072Z,98763.53
2023-10-23T16:05:48.539Z,98759.91
2023-10-23T16:08:16.024Z,98768.28
2023-10-23T16:10:43.589Z,98773.97
2023-10-23T16:13:10.944Z,98768.97
2023-10-23T16:15:39.741Z,98781.31
2023-10-23T16:18:07.125Z,98772.03
2023-10-23T16:20:34.472Z,98773.66
2023-10-23T16:23:01.770Z,98784.09
2023-10-23T16:25:29.090Z,98779.53
2023-10-23T16:27:56.449Z,98772.38
2023-10-23T16:30:23.973Z,98775.72
2023-10-23T16:32:54.084Z,98788.19
2023-10-23T16:35:21.680Z,98782.19
2023-10-23T16:37:48.997Z,98779.88
2023-10-23T16:40:16.575Z,98787.94
2023-10-23T16:42:43.881Z,98799.13
2023-10-23T16:45:11.427Z,98793.72
2023-10-23T16:47:39.085Z,98796.09
2023-10-23T16:50:09.236Z,98790.63
2023-10-23T16:52:37.043Z,98792.34
2023-10-23T16:55:05.866Z,98795.72
2023-10-23T16:57:33.330Z,98795.53
2023-10-23T17:00:00.637Z,98788.84
2023-10-23T17:02:28.131Z,98787.38
2023-10-23T17:04:55.617Z,98782.13
2023-10-23T17:07:24.332Z,98785.28
2023-10-23T17:09:51.664Z,98789.59
2023-10-23T17:12:18.944Z,98795.97
2023-10-23T17:14:49.309Z,98791.19
2023-10-23T17:17:16.705Z,98791.50
2023-10-23T17:19:46.758Z,98789.16
2023-10-23T17:22:14.289Z,98789.78
2023-10-23T17:24:42.968Z,98794.06
2023-10-23T17:27:10.258Z,98803.78
2023-10-23T17:29:37.818Z,98807.22
2023-10-23T17:32:06.636Z,98814.19
2023-10-23T17:34:34.030Z,98813.38
2023-10-23T17:37:01.537Z,98821.47
2023-10-23T17:39:28.826Z,98818.53
2023-10-23T17:41:57.497Z,98825.97
2023-10-23T17:44:24.792Z,98822.44
2023-10-23T17:46:52.291Z,98817.81
2023-10-23T17:49:19.876Z,98814.50
2023-10-23T17:51:47.204Z,98812.88
2023-10-23T17:54:14.540Z,98819.09
2023-10-23T17:56:41.840Z,98826.78
2023-10-23T17:59:10.610Z,98831.13
2023-10-23T18:01:40.160Z,98820.56
2023-10-23T18:04:11.265Z,98828.66
2023-10-23T18:06:39.434Z,98835.69
2023-10-23T18:09:06.819Z,98825.56
2023-10-23T18:11:34.218Z,98821.47
2023-10-23T18:14:01.651Z,98827.91
2023-10-23T18:16:30.371Z,98833.38
2023-10-23T18:18:57.786Z,98831.66
2023-10-23T18:21:25.214Z,98829.78
2023-10-23T18:23:52.843Z,98836.22
2023-10-23T18:26:20.167Z,98844.16
2023-10-23T18:28:47.467Z,98849.84
2023-10-23T18:31:14.847Z,98855.41
2023-10-23T18:33:43.675Z,98853.94
2023-10-23T18:36:14.450Z,98849.34
2023-10-23T18:38:41.978Z,98846.81
2023-10-23T18:41:09.279Z,98852.19
2023-10-23T18:43:36.715Z,98858.81
2023-10-23T18:46:04.369Z,98870.00
2023-10-23T18:48:31.839Z,98870.22
2023-10-23T18:51:00.985Z,98870.44
2023-10-23T18:53:28.576Z,98877.06
2023-10-23T18:55:55.894Z,98875.41
2023-10-23T18:58:23.261Z,98866.69
2023-10-23T19:00:50.815Z,98853.94
2023-10-23T19:03:18.530Z,98854.41
2023-10-23T19:05:45.881Z,98869.94
2023-10-23T19:08:14.559Z,98873.69
2023-10-23T19:10:41.908Z,98873.09
2023-10-23T19:13:09.232Z,98858.63
2023-10-23T19:15:36.558Z,98859.50
2023-10-23T19:18:04.104Z,98853.03
2023-10-23T19:20:31.457Z,98863.38
2023-10-23T19:22:58.744Z,98866.69
2023-10-23T19:25:27.481Z,98868.34
2023-10-23T19:27:54.817Z,98871.66
2023-10-23T19:30:22.107Z,98870.00
2023-10-23T19:32:50.112Z,98868.81
2023-10-23T19:35:18.015Z,98875.38
2023-10-23T19:37:45.810Z,98879.50
2023-10-23T19:40:14.389Z,98878.47
2023-10-23T19:42:51.711Z,98895.47
2023-10-23T19:45:20.003Z,98904.97
2023-10-23T19:47:47.854Z,98903.53
2023-10-23T19:50:16.285Z,98905.81
2023-10-23T19:52:44.835Z,98913.25
2023-10-23T19:55:43.591Z,98907.88
2023-10-23T19:58:03.264Z,98910.78
2023-10-23T20:00:30.839Z,98906.66
2023-10-23T20:02:58.134Z,98909.97
2023-10-23T20:05:25.513Z,98919.28
2023-10-23T20:07:52.823Z,98915.34
2023-10-23T20:10:20.234Z,98921.34
2023-10-23T20:12:47.556Z,98916.78
2023-10-23T20:15:16.292Z,98915.13
2023-10-23T20:17:43.624Z,98901.06
2023-10-23T20:20:12.008Z,98896.13
2023-10-23T20:22:40.342Z,98884.31
2023-10-23T20:25:09.195Z,98890.72
2023-10-23T20:27:37.476Z,98899.19
2023-10-23T20:30:06.355Z,98902.50
2023-10-23T20:32:35.677Z,98912.03
2023-10-23T20:35:03.223Z,98921.53
2023-10-23T20:37:30.573Z,98925.91
2023-10-23T20:39:58.152Z,98936.25
2023-10-23T20:42:25.615Z,98934.41
2023-10-23T20:44:53.241Z,98936.44
2023-10-23T20:47:20.566Z,98939.09
2023-10-23T20:49:49.236Z,98959.34
2023-10-23T20:52:16.566Z,98966.97
2023-10-23T20:54:43.975Z,98968.03
2023-10-23T20:57:11.260Z,98979.84
2023-10-23T20:59:38.709Z,98985.75
2023-10-23T21:02:06.750Z,98979.09
2023-10-23T21:04:34.575Z,98982.56
2023-10-23T21:07:03.934Z,98992.59
2023-10-23T21:09:31.680Z,98990.81
2023-10-23T21:12:00.136Z,98979.03
2023-10-23T21:14:27.645Z,98991.97
2023-10-23T21:16:55.141Z,98993.34
2023-10-23T21:19:22.826Z,98994.06
2023-10-23T21:21:50.435Z,99005.88
2023-10-23T21:24:19.375Z,99010.88
2023-10-23T21:26:46.905Z,99004.91
2023-10-23T21:29:17.261Z,99001.00
2023-10-23T21:31:45.280Z,99007.22
2023-10-23T21:34:12.866Z,99019.63
2023-10-23T21:36:40.294Z,99024.81
2023-10-23T21:39:07.595Z,99029.56
2023-10-23T21:41:36.925Z,99039.47
2023-10-23T21:44:04.890Z,99045.47
2023-10-23T21:46:32.331Z,99060.91
2023-10-23T21:49:01.125Z,99055.66
2023-10-23T21:51:28.624Z,99044.13
2023-10-23T21:53:56.930Z,99050.38
2023-10-23T21:57:16.494Z,99059.31
2023-10-23T21:59:15.419Z,99066.59
2023-10-23T22:01:43.465Z,99053.16
2023-10-23T22:04:11.216Z,99057.13
2023-10-23T22:06:39.395Z,99053.28
2023-10-23T22:09:07.405Z,99056.31
2023-10-23T22:11:35.294Z,99034.22
2023-10-23T22:14:03.167Z,99051.91
2023-10-23T22:16:31.913Z,99049.97
2023-10-23T22:18:59.245Z,99054.09
2023-10-23T22:21:26.522Z,99050.38
2023-10-23T22:23:53.817Z,99055.06
2023-10-23T22:26:21.120Z,99052.59
2023-10-23T22:28:48.427Z,99044.16
2023-10-23T22:31:15.830Z,99043.13
2023-10-23T22:33:44.590Z,99044.00
2023-10-23T22:36:11.973Z,99043.94
2023-10-23T22:38:39.299Z,99052.69
2023-10-23T22:41:06.593Z,99051.88
2023-10-23T22:43:33.963Z,99047.72
2023-10-23T22:46:03.619Z,99048.19
2023-10-23T22:48:31.788Z,99036.41
2023-10-23T22:51:01.578Z,99035.63
2023-10-23T22:53:29.391Z,99039.19
2023-10-23T22:55:59.505Z,99037.09
2023-10-23T22:58:29.706Z,99034.41
2023-10-23T23:00:57.693Z,99051.97
2023-10-23T23:03:25.743Z,99045.09
2023-10-23T23:05:54.990Z,99046.69
2023-10-23T23:08:25.142Z,99044.81
2023-10-23T23:10:52.983Z,99041.56
2023-10-23T23:13:20.868Z,99048.19
2023-10-23T23:15:49.845Z,99051.47
2023-10-23T23:18:19.860Z,99052.63
2023-10-23T23:20:50.542Z,99057.78
2023-10-23T23:23:17.835Z,99062.72
2023-10-23T23:25:46.534Z,99065.81
2023-10-23T23:28:13.888Z,99069.38
2023-10-23T23:30:41.664Z,99066.69
2023-10-23T23:33:09.053Z,99063.25
2023-10-23T23:35:36.368Z,99067.78
2023-10-23T23:38:03.662Z,99059.72
2023-10-23T23:40:31.112Z,99063.03
2023-10-23T23:42:59.801Z,99063.38
2023-10-23T23:45:27.071Z,99069.13
2023-10-23T23:47:54.407Z,99072.47
2023-10-23T23:50:21.761Z,99070.22
2023-10-23T23:52:49.113Z,99070.84
2023-10-23T23:55:16.573Z,99077.63
2023-10-23T23:57:43.930Z,99068.91
